createdAt,value
2022-12-19T00:01:17.320Z,102359.10
2022-12-19T00:03:44.787Z,102353.38
2022-12-19T00:06:11.994Z,102359.95
2022-12-19T00:08:39.047Z,102363.13
2022-12-19T00:11:05.973Z,102356.80
2022-12-19T00:13:40.965Z,102356.36
2022-12-19T00:16:14.387Z,102347.72
2022-12-19T00:18:45.800Z,102338.11
2022-12-19T00:21:16.057Z,102329.86
2022-12-19T00:23:43.826Z,102335.48
2022-12-19T00:26:20.890Z,102339.09
2022-12-19T00:28:49.745Z,102337.02
2022-12-19T00:31:18.249Z,102340.88
2022-12-19T00:33:46.778Z,102341.20
2022-12-19T00:36:17.084Z,102347.25
2022-12-19T00:38:51.421Z,102349.52
2022-12-19T00:41:21.264Z,102351.46
2022-12-19T00:43:48.604Z,102356.52
2022-12-19T00:46:16.813Z,102354.23
2022-12-19T00:48:44.337Z,102359.32
2022-12-19T00:51:15.276Z,102364.73
2022-12-19T00:53:43.032Z,102364.64
2022-12-19T00:56:12.625Z,102375.63
2022-12-19T00:58:44.957Z,102370.59
2022-12-19T01:01:17.474Z,102358.42
2022-12-19T01:04:04.479Z,102343.77
2022-12-19T01:06:32.415Z,102347.16
2022-12-19T01:09:00.254Z,102350.05
2022-12-19T01:11:41.335Z,102343.59
2022-12-19T01:14:08.274Z,102350.42
2022-12-19T01:16:35.436Z,102347.10
2022-12-19T01:19:02.512Z,102348.68
2022-12-19T01:21:32.058Z,102333.91
2022-12-19T01:23:59.417Z,102332.42
2022-12-19T01:26:26.323Z,102321.61
2022-12-19T01:28:53.201Z,102319.10
2022-12-19T01:31:21.062Z,102316.41
2022-12-19T01:33:47.952Z,102325.14
2022-12-19T01:36:17.473Z,102320.08
2022-12-19T01:38:44.324Z,102322.19
2022-12-19T01:41:11.845Z,102326.05
2022-12-19T01:43:59.584Z,102321.80
2022-12-19T01:46:32.686Z,102308.14
2022-12-19T01:49:00.722Z,102312.79
2022-12-19T01:51:33.664Z,102307.98
2022-12-19T01:54:06.016Z,102309.43
2022-12-19T01:56:37.222Z,102311.23
2022-12-19T01:59:08.644Z,102313.35
2022-12-19T02:01:48.990Z,102311.61
2022-12-19T02:04:22.929Z,102312.17
2022-12-19T02:06:51.343Z,102322.18
2022-12-19T02:09:24.531Z,102315.95
2022-12-19T02:11:53.671Z,102318.30
2022-12-19T02:14:21.554Z,102309.30
2022-12-19T02:16:56.893Z,102303.97
2022-12-19T02:20:37.026Z,102293.19
2022-12-19T02:23:25.074Z,102288.35
2022-12-19T02:26:12.119Z,102292.30
2022-12-19T02:28:57.366Z,102293.61
2022-12-19T02:31:31.186Z,102302.02
2022-12-19T02:34:08.844Z,102298.33
2022-12-19T02:36:45.445Z,102297.55
2022-12-19T02:39:19.965Z,102291.25
2022-12-19T02:41:51.590Z,102293.00
2022-12-19T02:44:25.735Z,102297.57
2022-12-19T02:46:54.084Z,102291.64
2022-12-19T02:49:31.103Z,102282.70
2022-12-19T02:51:59.343Z,102270.33
2022-12-19T02:54:27.056Z,102272.30
2022-12-19T02:57:01.494Z,102271.02
2022-12-19T02:59:48.251Z,102269.50
2022-12-19T03:02:27.101Z,102269.48
2022-12-19T03:05:00.134Z,102281.14
2022-12-19T03:07:37.061Z,102276.42
2022-12-19T03:10:13.357Z,102277.18
2022-12-19T03:12:49.638Z,102270.75
2022-12-19T03:15:17.680Z,102261.20
2022-12-19T03:17:45.304Z,102257.38
2022-12-19T03:20:21.061Z,102259.60
2022-12-19T03:22:48.412Z,102257.60
2022-12-19T03:25:16.036Z,102250.02
2022-12-19T03:27:45.411Z,102248.97
2022-12-19T03:30:15.912Z,102256.76
2022-12-19T03:32:47.562Z,102261.80
2022-12-19T03:35:19.708Z,102256.76
2022-12-19T03:37:49.238Z,102256.02
2022-12-19T03:40:20.501Z,102254.27
2022-12-19T03:43:06.564Z,102252.62
2022-12-19T03:45:37.332Z,102252.92
2022-12-19T03:48:09.339Z,102253.96
2022-12-19T03:50:46.294Z,102246.92
2022-12-19T03:53:24.148Z,102250.30
2022-12-19T03:55:55.863Z,102246.11
2022-12-19T03:58:29.598Z,102253.02
2022-12-19T04:00:57.637Z,102243.47
2022-12-19T04:03:25.738Z,102235.06
2022-12-19T04:05:54.356Z,102233.56
2022-12-19T04:08:24.013Z,102227.02
2022-12-19T04:10:55.505Z,102222.39
2022-12-19T04:13:28.652Z,102218.55
2022-12-19T04:16:05.056Z,102207.98
2022-12-19T04:18:34.718Z,102210.38
2022-12-19T04:21:09.770Z,102204.00
2022-12-19T04:23:41.285Z,102201.02
2022-12-19T04:26:12.385Z,102195.99
2022-12-19T04:28:44.925Z,102189.14
2022-12-19T04:31:14.858Z,102196.15
2022-12-19T04:33:42.031Z,102184.73
2022-12-19T04:36:11.352Z,102179.46
2022-12-19T04:38:38.537Z,102182.45
2022-12-19T04:41:05.663Z,102175.08
2022-12-19T04:43:32.811Z,102171.52
2022-12-19T04:46:00.379Z,102168.34
2022-12-19T04:48:28.032Z,102169.33
2022-12-19T04:50:56.313Z,102168.73
2022-12-19T04:53:23.467Z,102165.78
2022-12-19T04:55:50.610Z,102158.16
2022-12-19T04:58:21.872Z,102159.83
2022-12-19T05:00:49.638Z,102139.10
2022-12-19T05:03:16.873Z,102152.55
2022-12-19T05:05:44.037Z,102142.77
2022-12-19T05:08:11.586Z,102143.48
2022-12-19T05:10:40.212Z,102158.33
2022-12-19T05:13:09.326Z,102147.62
2022-12-19T05:15:36.484Z,102146.38
2022-12-19T05:18:04.235Z,102171.27
2022-12-19T05:20:31.548Z,102160.41
2022-12-19T05:23:02.964Z,102154.95
2022-12-19T05:25:31.680Z,102144.61
2022-12-19T05:27:59.024Z,102158.80
2022-12-19T05:30:26.183Z,102153.66
2022-12-19T05:32:53.325Z,102146.86
2022-12-19T05:35:20.715Z,102155.48
2022-12-19T05:37:48.167Z,102151.26
2022-12-19T05:40:16.175Z,102144.73
2022-12-19T05:42:43.461Z,102141.63
2022-12-19T05:45:12.905Z,102135.34
2022-12-19T05:47:40.024Z,102138.23
2022-12-19T05:50:08.301Z,102129.14
2022-12-19T05:52:35.526Z,102129.37
2022-12-19T05:55:02.764Z,102132.09
2022-12-19T05:57:29.921Z,102132.96
2022-12-19T05:59:57.027Z,102140.69
2022-12-19T06:02:24.705Z,102141.23
2022-12-19T06:04:52.218Z,102135.42
2022-12-19T06:07:21.040Z,102140.17
2022-12-19T06:09:48.597Z,102145.52
2022-12-19T06:12:15.845Z,102154.96
2022-12-19T06:14:43.009Z,102149.84
2022-12-19T06:17:10.291Z,102160.46
2022-12-19T06:19:37.435Z,102157.48
2022-12-19T06:22:04.623Z,102150.48
2022-12-19T06:24:31.705Z,102152.22
2022-12-19T06:26:58.998Z,102155.70
2022-12-19T06:29:26.115Z,102159.00
2022-12-19T06:31:53.270Z,102159.36
2022-12-19T06:34:46.939Z,102152.39
2022-12-19T06:37:08.620Z,102150.54
2022-12-19T06:39:35.967Z,102144.66
2022-12-19T06:42:32.412Z,102148.38
2022-12-19T06:44:59.929Z,102140.83
2022-12-19T06:47:27.975Z,102153.39
2022-12-19T06:49:55.194Z,102136.59
2022-12-19T06:52:23.555Z,102133.50
2022-12-19T06:54:50.954Z,102142.38
2022-12-19T06:57:19.407Z,102154.95
2022-12-19T06:59:46.833Z,102148.58
2022-12-19T07:02:27.349Z,102140.02
2022-12-19T07:05:01.794Z,102138.65
2022-12-19T07:07:31.265Z,102146.20
2022-12-19T07:09:59.274Z,102153.55
2022-12-19T07:12:27.611Z,102150.52
2022-12-19T07:14:55.284Z,102144.84
2022-12-19T07:17:23.597Z,102137.48
2022-12-19T07:19:52.139Z,102142.75
2022-12-19T07:22:19.449Z,102148.23
2022-12-19T07:24:47.048Z,102137.63
2022-12-19T07:27:15.324Z,102141.17
2022-12-19T07:29:42.677Z,102138.30
2022-12-19T07:32:10.027Z,102130.17
2022-12-19T07:34:37.233Z,102135.02
2022-12-19T07:37:04.362Z,102133.34
2022-12-19T07:39:31.987Z,102136.54
2022-12-19T07:41:59.289Z,102131.04
2022-12-19T07:44:36.529Z,102123.84
2022-12-19T07:47:03.756Z,102124.55
2022-12-19T07:49:31.437Z,102122.95
2022-12-19T07:51:58.897Z,102119.23
2022-12-19T07:54:26.135Z,102123.09
2022-12-19T07:56:53.839Z,102126.16
2022-12-19T07:59:27.156Z,102113.79
2022-12-19T08:01:57.248Z,102110.20
2022-12-19T08:04:25.689Z,102106.89
2022-12-19T08:06:53.037Z,102109.06
2022-12-19T08:09:20.319Z,102106.91
2022-12-19T08:11:47.711Z,102109.38
2022-12-19T08:14:15.022Z,102113.48
2022-12-19T08:17:18.165Z,102114.88
2022-12-19T08:19:29.594Z,102111.84
2022-12-19T08:21:56.814Z,102112.58
2022-12-19T08:24:23.918Z,102109.27
2022-12-19T08:26:51.314Z,102106.71
2022-12-19T08:29:18.728Z,102091.84
2022-12-19T08:31:46.319Z,102104.00
2022-12-19T08:34:14.082Z,102081.89
2022-12-19T08:36:41.744Z,102081.00
2022-12-19T08:39:09.138Z,102074.05
2022-12-19T08:41:36.958Z,102067.06
2022-12-19T08:44:04.267Z,102077.64
2022-12-19T08:46:31.526Z,102074.73
2022-12-19T08:48:59.533Z,102066.88
2022-12-19T08:51:27.344Z,102067.04
2022-12-19T08:53:54.446Z,102066.52
2022-12-19T08:56:23.979Z,102052.11
2022-12-19T08:58:53.660Z,102045.17
2022-12-19T09:01:26.178Z,102039.88
2022-12-19T09:04:36.511Z,102049.87
2022-12-19T09:06:41.675Z,102034.46
2022-12-19T09:09:08.933Z,102033.52
2022-12-19T09:11:48.025Z,102043.91
2022-12-19T09:14:15.741Z,102035.65
2022-12-19T09:16:48.588Z,102025.60
2022-12-19T09:19:16.695Z,102014.94
2022-12-19T09:21:44.059Z,102012.47
2022-12-19T09:24:12.617Z,102021.67
2022-12-19T09:26:42.151Z,102007.09
2022-12-19T09:29:19.697Z,102007.49
2022-12-19T09:31:53.885Z,102000.06
2022-12-19T09:34:26.059Z,102002.60
2022-12-19T09:37:05.682Z,101988.31
2022-12-19T09:39:34.316Z,101986.41
2022-12-19T09:42:19.014Z,101971.05
2022-12-19T09:45:00.370Z,101966.35
2022-12-19T09:47:31.114Z,101958.41
2022-12-19T09:50:01.042Z,101957.48
2022-12-19T09:52:34.129Z,101942.11
2022-12-19T09:55:08.716Z,101939.39
2022-12-19T09:57:41.970Z,101946.11
2022-12-19T10:00:16.033Z,101935.70
2022-12-19T10:02:48.837Z,101935.13
2022-12-19T10:05:36.559Z,101926.54
2022-12-19T10:08:19.078Z,101915.20
2022-12-19T10:12:41.396Z,101913.40
2022-12-19T10:14:01.223Z,101920.85
2022-12-19T10:17:22.073Z,101923.12
2022-12-19T10:19:47.415Z,101913.68
2022-12-19T10:22:25.762Z,101911.68
2022-12-19T10:25:12.207Z,101893.86
2022-12-19T10:27:58.614Z,101892.25
2022-12-19T10:30:29.080Z,101887.05
2022-12-19T10:33:20.742Z,101884.21
2022-12-19T10:35:54.339Z,101888.51
2022-12-19T10:38:30.413Z,101880.08
2022-12-19T10:41:13.645Z,101876.00
2022-12-19T10:43:49.618Z,101869.84
2022-12-19T10:46:22.730Z,101851.98
2022-12-19T10:48:51.937Z,101861.75
2022-12-19T10:51:26.562Z,101861.45
2022-12-19T10:53:58.549Z,101844.25
2022-12-19T10:56:36.723Z,101844.73
2022-12-19T10:59:07.076Z,101848.39
2022-12-19T11:01:40.003Z,101844.59
2022-12-19T11:04:30.795Z,101842.16
2022-12-19T11:07:18.961Z,101840.09
2022-12-19T11:09:51.350Z,101823.70
2022-12-19T11:17:00.325Z,101814.89
2022-12-19T11:19:27.866Z,101822.30
2022-12-19T11:24:30.022Z,101835.23
2022-12-19T11:27:08.379Z,101816.55
2022-12-19T11:29:39.636Z,101830.33
2022-12-19T11:30:47.582Z,101814.83
2022-12-19T11:32:41.241Z,101806.65
2022-12-19T11:35:19.728Z,101797.88
2022-12-19T11:37:55.952Z,101794.20
2022-12-19T11:40:33.163Z,101805.45
2022-12-19T11:43:42.522Z,101803.80
2022-12-19T11:45:58.289Z,101801.67
2022-12-19T11:48:33.572Z,101802.29
2022-12-19T11:51:07.956Z,101798.75
2022-12-19T11:53:43.477Z,101796.36
2022-12-19T11:56:16.341Z,101785.08
2022-12-19T11:58:48.486Z,101776.34
2022-12-19T12:01:25.402Z,101777.27
2022-12-19T12:04:09.876Z,101773.83
2022-12-19T12:06:47.386Z,101763.77
2022-12-19T12:12:28.405Z,101763.27
2022-12-19T12:20:45.008Z,101751.60
2022-12-19T12:21:54.295Z,101724.91
2022-12-19T12:28:47.950Z,101734.23
2022-12-19T12:31:26.566Z,101725.16
2022-12-19T12:31:44.252Z,101726.16
2022-12-19T12:31:46.814Z,101727.02
2022-12-19T12:31:48.509Z,101724.79
2022-12-19T12:35:13.682Z,101711.29
2022-12-19T12:38:00.355Z,101700.27
2022-12-19T12:39:24.337Z,101690.35
2022-12-19T12:42:04.825Z,101698.45
2022-12-19T12:44:41.142Z,101697.90
2022-12-19T12:47:20.511Z,101704.45
2022-12-19T12:49:49.810Z,101699.21
2022-12-19T12:52:21.136Z,101692.86
2022-12-19T12:54:49.990Z,101686.17
2022-12-19T12:57:37.434Z,101675.83
2022-12-19T13:00:27.185Z,101666.54
2022-12-19T13:02:59.461Z,101672.00
2022-12-19T13:05:40.862Z,101666.02
2022-12-19T13:08:34.200Z,101676.62
2022-12-19T13:11:06.590Z,101673.57
2022-12-19T13:13:58.022Z,101667.99
2022-12-19T13:16:53.239Z,101678.25
2022-12-19T13:19:27.870Z,101691.42
2022-12-19T13:22:23.559Z,101667.34
2022-12-19T13:24:53.249Z,101645.26
2022-12-19T13:27:42.250Z,101643.00
2022-12-19T13:30:20.752Z,101649.62
2022-12-19T13:33:09.504Z,101642.64
2022-12-19T13:36:33.308Z,101629.23
2022-12-19T13:39:58.423Z,101629.98
2022-12-19T13:41:58.978Z,101627.49
2022-12-19T13:44:27.777Z,101623.44
2022-12-19T13:46:56.457Z,101615.20
2022-12-19T13:49:34.144Z,101616.38
2022-12-19T13:52:04.179Z,101618.89
2022-12-19T13:54:34.934Z,101613.72
2022-12-19T13:57:09.729Z,101612.63
2022-12-19T13:59:59.398Z,101606.25
2022-12-19T14:02:34.859Z,101604.63
2022-12-19T14:06:15.368Z,101606.75
2022-12-19T14:08:17.844Z,101598.25
2022-12-19T14:11:35.036Z,101597.63
2022-12-19T14:14:10.114Z,101581.92
2022-12-19T14:16:44.411Z,101586.15
2022-12-19T14:19:23.625Z,101579.92
2022-12-19T14:22:08.004Z,101577.09
2022-12-19T14:24:38.676Z,101573.27
2022-12-19T14:28:20.805Z,101568.85
2022-12-19T14:30:30.971Z,101569.17
2022-12-19T14:33:46.858Z,101570.98
2022-12-19T14:36:07.181Z,101563.94
2022-12-19T14:39:21.229Z,101556.71
2022-12-19T14:42:00.355Z,101548.21
2022-12-19T14:52:36.017Z,101542.85
2022-12-19T14:54:07.607Z,101533.81
2022-12-19T14:54:13.636Z,101546.24
2022-12-19T14:54:25.924Z,101524.65
2022-12-19T14:56:45.083Z,101524.27
2022-12-19T14:59:04.995Z,101524.05
2022-12-19T15:01:35.275Z,101530.11
2022-12-19T15:04:52.258Z,101523.01
2022-12-19T15:07:07.122Z,101521.20
2022-12-19T15:11:04.819Z,101517.13
2022-12-19T15:14:50.873Z,101504.32
2022-12-19T15:16:05.687Z,101498.90
2022-12-19T15:18:42.817Z,101498.83
2022-12-19T15:21:12.626Z,101499.83
2022-12-19T15:23:40.029Z,101485.21
2022-12-19T15:26:13.172Z,101476.03
2022-12-19T15:28:43.224Z,101473.88
2022-12-19T15:31:24.598Z,101476.69
2022-12-19T15:36:39.226Z,101484.88
2022-12-19T15:39:06.627Z,101474.67
2022-12-19T15:41:34.239Z,101479.77
2022-12-19T15:44:04.826Z,101460.66
2022-12-19T15:46:33.954Z,101465.96
2022-12-19T15:49:01.189Z,101465.27
2022-12-19T15:51:28.293Z,101450.59
2022-12-19T15:54:08.914Z,101468.95
2022-12-19T15:56:41.905Z,101471.96
2022-12-19T15:59:20.817Z,101471.01
2022-12-19T16:01:48.340Z,101463.23
2022-12-19T16:04:16.454Z,101464.25
2022-12-19T16:06:44.241Z,101436.49
2022-12-19T16:09:22.064Z,101445.84
2022-12-19T16:11:49.471Z,101438.36
2022-12-19T16:14:16.717Z,101433.13
2022-12-19T16:16:55.795Z,101428.92
2022-12-19T16:19:31.461Z,101426.67
2022-12-19T16:22:00.504Z,101427.41
2022-12-19T16:24:27.659Z,101421.77
2022-12-19T16:26:58.600Z,101427.05
2022-12-19T16:29:27.878Z,101407.46
2022-12-19T16:31:55.478Z,101400.35
2022-12-19T16:34:25.413Z,101399.32
2022-12-19T16:36:54.324Z,101403.17
2022-12-19T16:39:21.454Z,101388.45
2022-12-19T16:41:48.760Z,101396.07
2022-12-19T16:44:20.007Z,101388.64
2022-12-19T16:46:50.896Z,101380.09
2022-12-19T16:49:24.055Z,101376.40
2022-12-19T16:51:52.177Z,101380.66
2022-12-19T16:54:20.382Z,101361.27
2022-12-19T16:56:51.897Z,101354.38
2022-12-19T16:59:22.233Z,101340.55
2022-12-19T17:01:51.193Z,101330.27
2022-12-19T17:04:20.600Z,101338.56
2022-12-19T17:06:47.977Z,101327.91
2022-12-19T17:09:17.956Z,101332.33
2022-12-19T17:11:49.127Z,101326.41
2022-12-19T17:14:20.057Z,101328.64
2022-12-19T17:16:47.481Z,101318.77
2022-12-19T17:19:21.387Z,101311.44
2022-12-19T17:21:49.464Z,101319.94
2022-12-19T17:24:17.707Z,101304.82
2022-12-19T17:26:45.099Z,101309.15
2022-12-19T17:29:12.673Z,101305.85
2022-12-19T17:31:41.116Z,101301.31
2022-12-19T17:34:13.733Z,101303.42
2022-12-19T17:36:40.939Z,101301.16
2022-12-19T17:39:18.759Z,101301.91
2022-12-19T17:41:46.155Z,101288.37
2022-12-19T17:44:13.398Z,101283.73
2022-12-19T17:46:40.741Z,101290.17
2022-12-19T17:49:15.980Z,101288.52
2022-12-19T17:51:52.465Z,101292.38
2022-12-19T17:54:20.139Z,101301.20
2022-12-19T17:56:47.843Z,101289.70
2022-12-19T17:59:15.415Z,101282.30
2022-12-19T18:01:43.796Z,101284.68
2022-12-19T18:04:15.677Z,101292.02
2022-12-19T18:06:43.355Z,101284.62
2022-12-19T18:09:21.399Z,101273.48
2022-12-19T18:11:48.516Z,101270.98
2022-12-19T18:14:16.331Z,101279.65
2022-12-19T18:16:44.359Z,101273.09
2022-12-19T18:19:19.323Z,101277.61
2022-12-19T18:21:46.613Z,101273.27
2022-12-19T18:24:14.949Z,101257.81
2022-12-19T18:26:42.249Z,101252.74
2022-12-19T18:29:09.887Z,101255.64
2022-12-19T18:31:42.430Z,101245.23
2022-12-19T18:34:19.084Z,101245.90
2022-12-19T18:36:46.466Z,101244.83
2022-12-19T18:39:22.824Z,101245.90
2022-12-19T18:41:48.652Z,101241.28
2022-12-19T18:44:18.709Z,101241.18
2022-12-19T18:46:47.161Z,101232.20
2022-12-19T18:49:18.272Z,101231.88
2022-12-19T18:51:45.894Z,101237.08
2022-12-19T18:54:17.804Z,101231.40
2022-12-19T18:56:45.031Z,101230.89
2022-12-19T18:59:12.458Z,101224.92
2022-12-19T19:01:43.287Z,101221.69
2022-12-19T19:04:13.332Z,101218.10
2022-12-19T19:06:48.566Z,101227.34
2022-12-19T19:09:20.346Z,101206.23
2022-12-19T19:12:06.667Z,101196.71
2022-12-19T19:14:34.463Z,101197.91
2022-12-19T19:17:03.318Z,101186.40
2022-12-19T19:19:30.895Z,101177.80
2022-12-19T19:21:58.288Z,101176.98
2022-12-19T19:24:26.151Z,101177.66
2022-12-19T19:26:53.657Z,101174.89
2022-12-19T19:29:20.766Z,101176.14
2022-12-19T19:31:51.114Z,101177.59
2022-12-19T19:34:24.459Z,101161.23
2022-12-19T19:36:56.208Z,101159.31
2022-12-19T19:39:24.208Z,101166.77
2022-12-19T19:41:51.501Z,101160.61
2022-12-19T19:44:18.589Z,101154.72
2022-12-19T19:46:46.320Z,101164.83
2022-12-19T19:49:13.539Z,101147.55
2022-12-19T19:51:40.711Z,101156.35
2022-12-19T19:54:08.290Z,101154.42
2022-12-19T19:56:35.656Z,101155.02
2022-12-19T19:59:03.064Z,101148.50
2022-12-19T20:01:30.610Z,101135.41
2022-12-19T20:03:58.277Z,101139.85
2022-12-19T20:06:25.717Z,101138.26
2022-12-19T20:08:53.694Z,101139.81
2022-12-19T20:11:21.075Z,101128.82
2022-12-19T20:13:48.505Z,101131.05
2022-12-19T20:16:18.104Z,101137.46
2022-12-19T20:18:50.243Z,101131.42
2022-12-19T20:21:18.487Z,101125.14
2022-12-19T20:23:46.150Z,101119.16
2022-12-19T20:26:15.686Z,101111.96
2022-12-19T20:28:48.361Z,101104.27
2022-12-19T20:31:16.757Z,101105.00
2022-12-19T20:33:45.174Z,101098.79
2022-12-19T20:36:15.502Z,101098.14
2022-12-19T20:38:42.821Z,101100.08
2022-12-19T20:41:10.555Z,101091.30
2022-12-19T20:43:38.884Z,101087.41
2022-12-19T20:46:08.075Z,101091.57
2022-12-19T20:48:35.424Z,101086.23
2022-12-19T20:51:04.726Z,101087.91
2022-12-19T20:53:31.993Z,101085.11
2022-12-19T20:56:01.730Z,101080.33
2022-12-19T20:58:30.443Z,101083.16
2022-12-19T21:01:03.763Z,101076.85
2022-12-19T21:03:31.329Z,101081.73
2022-12-19T21:05:59.067Z,101072.38
2022-12-19T21:08:27.069Z,101070.70
2022-12-19T21:10:55.212Z,101061.01
2022-12-19T21:13:23.359Z,101057.39
2022-12-19T21:15:54.944Z,101051.73
2022-12-19T21:18:22.198Z,101053.84
2022-12-19T21:20:50.724Z,101040.17
2022-12-19T21:23:18.122Z,101038.95
2022-12-19T21:25:45.593Z,101035.01
2022-12-19T21:28:12.943Z,101036.13
2022-12-19T21:30:40.290Z,101028.22
2022-12-19T21:33:08.359Z,101030.39
2022-12-19T21:35:39.078Z,101028.57
2022-12-19T21:38:06.572Z,101027.05
2022-12-19T21:40:36.787Z,101019.27
2022-12-19T21:43:09.784Z,101013.73
2022-12-19T21:45:39.294Z,101012.76
2022-12-19T21:48:07.153Z,101008.69
2022-12-19T21:50:38.664Z,100993.92
2022-12-19T21:53:06.175Z,100994.30
2022-12-19T21:55:33.676Z,100984.30
2022-12-19T21:58:02.040Z,100984.14
2022-12-19T22:00:29.382Z,100976.52
2022-12-19T22:03:13.474Z,100963.90
2022-12-19T22:05:41.958Z,100945.04
2022-12-19T22:08:10.439Z,100947.73
2022-12-19T22:10:38.948Z,100937.56
2022-12-19T22:13:06.192Z,100944.19
2022-12-19T22:15:33.295Z,100936.05
2022-12-19T22:18:00.656Z,100941.08
2022-12-19T22:20:27.824Z,100940.66
2022-12-19T22:22:54.933Z,100937.35
2022-12-19T22:25:25.290Z,100937.24
2022-12-19T22:27:56.043Z,100929.88
2022-12-19T22:30:23.549Z,100936.00
2022-12-19T22:32:50.737Z,100925.91
2022-12-19T22:35:18.405Z,100922.11
2022-12-19T22:37:45.666Z,100922.79
2022-12-19T22:40:14.441Z,100917.35
2022-12-19T22:42:41.841Z,100906.10
2022-12-19T22:45:11.669Z,100910.01
2022-12-19T22:47:41.500Z,100903.84
2022-12-19T22:50:11.622Z,100897.06
2022-12-19T22:52:39.460Z,100892.09
2022-12-19T22:55:07.953Z,100894.64
2022-12-19T22:57:35.421Z,100890.70
2022-12-19T23:00:02.805Z,100891.70
2022-12-19T23:02:30.319Z,100883.00
2022-12-19T23:04:58.030Z,100882.30
2022-12-19T23:07:25.352Z,100886.65
2022-12-19T23:09:52.771Z,100876.20
2022-12-19T23:12:20.202Z,100866.15
2022-12-19T23:14:47.344Z,100870.34
2022-12-19T23:17:14.558Z,100869.45
2022-12-19T23:19:41.875Z,100861.35
2022-12-19T23:22:09.405Z,100861.07
2022-12-19T23:24:37.082Z,100852.16
2022-12-19T23:27:05.261Z,100850.02
2022-12-19T23:29:32.690Z,100845.52
2022-12-19T23:32:00.006Z,100841.92
2022-12-19T23:34:27.314Z,100846.43
2022-12-19T23:37:10.707Z,100851.09
2022-12-19T23:39:39.027Z,100853.05
2022-12-19T23:42:06.646Z,100850.08
2022-12-19T23:44:34.306Z,100850.39
2022-12-19T23:47:03.897Z,100846.29
2022-12-19T23:49:31.763Z,100846.39
2022-12-19T23:51:58.902Z,100842.95
2022-12-19T23:54:26.193Z,100835.92
2022-12-19T23:56:53.644Z,100836.68
2022-12-19T23:59:20.906Z,100837.80
